Time;durP1;ratioP1;P1;durP2;ratioP2;P2;SDS_P1;SDS_P2;PMS_P1;PMS_P2;Temp;Humidity;BMP_temperature;BMP_pressure;BME280_temperature;BME280_humidity;BME280_pressure;Samples;Min_cycle;Max_cycle;Signal;HPM_P1;HPM_P2
2021/04/22 00:01:53;;;;;;;31.80;28.38;;;;;;;10.80;58.60;100017.82;122377;1153;24670;-74
2021/04/22 00:04:21;;;;;;;34.68;29.23;;;;;;;10.82;58.82;100022.91;122228;1152;22537;-74
2021/04/22 00:06:51;;;;;;;33.60;30.05;;;;;;;10.82;58.92;100033.48;122425;1151;24677;-74
2021/04/22 00:09:20;;;;;;;30.93;27.40;;;;;;;10.82;59.48;100025.55;122470;1152;22521;-75
2021/04/22 00:11:49;;;;;;;32.28;27.73;;;;;;;10.80;59.20;100023.11;122479;1152;22879;-75
2021/04/22 00:14:17;;;;;;;33.05;29.35;;;;;;;10.79;59.41;100018.80;122480;1152;23313;-75
2021/04/22 00:16:46;;;;;;;34.65;30.55;;;;;;;10.79;59.47;100018.80;122161;1151;22519;-74
2021/04/22 00:19:14;;;;;;;33.58;30.18;;;;;;;10.77;59.34;100018.17;122411;1152;25334;-74
2021/04/22 00:21:42;;;;;;;35.38;31.70;;;;;;;10.75;59.37;100027.27;122434;1152;22521;-75
2021/04/22 00:24:11;;;;;;;32.28;28.68;;;;;;;10.73;59.50;100022.17;122513;1152;22521;-74
2021/04/22 00:26:40;;;;;;;32.28;28.85;;;;;;;10.70;59.76;100017.23;122446;1152;22532;-74
2021/04/22 00:29:08;;;;;;;32.13;28.15;;;;;;;10.69;60.13;100028.78;122415;1152;22579;-74
2021/04/22 00:31:36;;;;;;;30.65;27.45;;;;;;;10.69;59.95;100033.25;122413;1153;22528;-75
2021/04/22 00:34:04;;;;;;;33.70;28.37;;;;;;;10.68;60.07;100032.44;122329;1152;24806;-75
2021/04/22 00:36:33;;;;;;;30.53;27.38;;;;;;;10.66;60.08;100034.42;122208;1152;25012;-75
2021/04/22 00:39:01;;;;;;;28.60;25.85;;;;;;;10.63;60.02;100050.64;122380;1152;22517;-74
2021/04/22 00:41:29;;;;;;;30.53;26.45;;;;;;;10.61;60.05;100057.91;122470;1152;22534;-75
2021/04/22 00:43:58;;;;;;;32.55;27.88;;;;;;;10.57;59.99;100052.16;122427;1152;22578;-75
2021/04/22 00:46:26;;;;;;;32.55;29.18;;;;;;;10.55;60.27;100064.70;122344;1152;22528;-75
2021/04/22 00:48:55;;;;;;;30.25;26.95;;;;;;;10.53;60.32;100066.72;122382;1152;22594;-74
2021/04/22 00:51:24;;;;;;;30.80;27.53;;;;;;;10.52;60.52;100054.48;122404;1153;22870;-75
2021/04/22 00:53:53;;;;;;;31.88;26.85;;;;;;;10.54;60.94;100049.05;122172;1151;22540;-74
2021/04/22 00:56:22;;;;;;;30.13;27.10;;;;;;;10.54;60.74;100054.33;122216;1152;22532;-74
2021/04/22 00:58:50;;;;;;;29.10;26.23;;;;;;;10.51;60.64;100062.59;122468;1153;22525;-74
2021/04/22 01:01:18;;;;;;;28.88;25.85;;;;;;;10.46;60.75;100067.56;122476;1152;24674;-73
2021/04/22 01:03:46;;;;;;;27.23;24.38;;;;;;;10.39;60.79;100067.44;122204;1152;24660;-74
2021/04/22 01:06:15;;;;;;;24.65;22.20;;;;;;;10.37;60.95;100064.16;122291;1152;22694;-74
2021/04/22 01:08:43;;;;;;;24.45;21.98;;;;;;;10.36;61.13;100067.78;122446;1152;24687;-77
2021/04/22 01:11:13;;;;;;;22.93;20.28;;;;;;;10.34;61.26;100070.61;122090;1155;22859;-73
2021/04/22 01:13:41;;;;;;;24.98;22.33;;;;;;;10.32;61.21;100085.78;122143;1155;22518;-73
2021/04/22 01:16:10;;;;;;;23.83;21.38;;;;;;;10.32;61.35;100087.61;122039;1155;22530;-74
2021/04/22 01:18:40;;;;;;;22.08;19.88;;;;;;;10.27;61.37;100077.58;122040;1155;22635;-74
2021/04/22 01:21:25;;;;;;;21.70;19.50;;;;;;;10.20;61.40;100083.70;121990;1155;22992;-75
2021/04/22 01:23:54;;;;;;;21.63;19.60;;;;;;;10.10;61.37;100082.08;122061;1154;23323;-75
2021/04/22 01:26:27;;;;;;;22.03;19.75;;;;;;;10.06;61.72;100070.23;122008;1155;22540;-77
2021/04/22 01:28:55;;;;;;;23.45;21.23;;;;;;;9.99;61.92;100057.86;122102;1155;23467;-76
2021/04/22 01:31:25;;;;;;;23.88;21.58;;;;;;;9.98;62.03;100072.06;121529;1155;22550;-75
2021/04/22 01:34:07;;;;;;;22.33;20.13;;;;;;;9.96;62.34;100080.13;121624;1155;22548;-75
2021/04/22 01:36:42;;;;;;;23.53;20.67;;;;;;;9.95;62.48;100083.77;121986;1155;22532;-75
2021/04/22 01:39:13;;;;;;;23.18;20.80;;;;;;;9.95;62.61;100093.51;122082;1155;22531;-75
2021/04/22 01:41:42;;;;;;;22.25;19.98;;;;;;;9.95;62.73;100110.16;122175;1155;22580;-74
2021/04/22 01:44:10;;;;;;;23.85;18.55;;;;;;;9.93;62.59;100113.95;122123;1153;22747;-74
2021/04/22 01:46:38;;;;;;;25.55;19.58;;;;;;;9.90;62.65;100096.67;122123;1155;22640;-74
2021/04/22 01:49:07;;;;;;;21.83;18.33;;;;;;;9.89;62.91;100105.55;122138;1152;24664;-74
2021/04/22 01:51:35;;;;;;;20.90;18.53;;;;;;;9.86;63.06;100100.61;122357;1152;22534;-73
2021/04/22 01:54:04;;;;;;;21.20;18.40;;;;;;;9.82;63.33;100104.59;122346;1152;22567;-73
2021/04/22 01:56:32;;;;;;;17.63;15.90;;;;;;;9.79;63.62;100089.09;122454;1152;22524;-74
2021/04/22 01:59:01;;;;;;;15.25;13.20;;;;;;;9.70;63.36;100092.77;122414;1152;22578;-75
2021/04/22 02:01:29;;;;;;;15.35;12.88;;;;;;;9.61;63.61;100105.95;122417;1153;22518;-74
2021/04/22 02:03:57;;;;;;;19.10;10.93;;;;;;;9.53;64.01;100111.25;122477;1153;24664;-73
2021/04/22 02:06:25;;;;;;;17.45;10.90;;;;;;;9.44;63.94;100112.24;122392;1152;22518;-73
2021/04/22 02:08:54;;;;;;;16.90;9.73;;;;;;;9.38;63.86;100113.72;122364;1152;22894;-73
2021/04/22 02:11:22;;;;;;;20.25;10.43;;;;;;;9.31;64.04;100107.47;122421;1150;22521;-73
2021/04/22 02:13:50;;;;;;;20.60;10.88;;;;;;;9.27;63.96;100094.80;122406;1152;22608;-73
2021/04/22 02:16:18;;;;;;;15.73;10.50;;;;;;;9.21;63.69;100095.45;122443;1152;25838;-74
2021/04/22 02:18:47;;;;;;;17.45;11.53;;;;;;;9.16;63.66;100107.31;122439;1152;24667;-76
2021/04/22 02:21:15;;;;;;;16.70;10.43;;;;;;;9.11;63.66;100111.42;122437;1152;22526;-74
2021/04/22 02:23:43;;;;;;;14.05;10.28;;;;;;;9.08;64.10;100115.20;122377;1152;22516;-74
2021/04/22 02:26:11;;;;;;;13.95;9.18;;;;;;;9.06;64.14;100132.98;122404;1151;22607;-74
2021/04/22 02:28:40;;;;;;;11.73;8.35;;;;;;;9.02;64.12;100136.11;122429;1152;24370;-74
2021/04/22 02:31:09;;;;;;;15.08;8.73;;;;;;;8.95;63.65;100131.48;122527;1151;22538;-74
2021/04/22 02:33:37;;;;;;;15.53;8.10;;;;;;;8.89;63.81;100123.41;122466;1152;23726;-74
2021/04/22 02:36:06;;;;;;;18.47;9.20;;;;;;;8.81;63.21;100118.95;122382;1153;22534;-74
2021/04/22 02:38:35;;;;;;;19.50;8.88;;;;;;;8.76;63.28;100123.88;122266;1151;22533;-73
2021/04/22 02:41:03;;;;;;;13.85;8.10;;;;;;;8.72;63.23;100125.19;122355;1153;22528;-74
2021/04/22 02:43:31;;;;;;;15.30;7.68;;;;;;;8.63;62.90;100137.53;122434;1152;22605;-74
2021/04/22 02:46:00;;;;;;;11.58;6.65;;;;;;;8.53;62.53;100139.48;122420;1152;22589;-74
2021/04/22 02:48:29;;;;;;;9.95;5.65;;;;;;;8.43;62.73;100150.13;122465;1152;23309;-74
2021/04/22 02:50:58;;;;;;;9.25;5.95;;;;;;;8.39;62.68;100159.30;122205;1152;22528;-74
2021/04/22 02:53:26;;;;;;;12.45;5.68;;;;;;;8.35;62.78;100159.76;122434;1153;22521;-75
2021/04/22 02:55:54;;;;;;;11.35;5.23;;;;;;;8.29;62.74;100163.02;122216;1152;22991;-74
2021/04/22 02:58:27;;;;;;;12.00;5.03;;;;;;;8.23;62.40;100173.20;122363;1152;22613;-76
2021/04/22 03:00:56;;;;;;;9.70;4.80;;;;;;;8.20;62.48;100159.54;122425;1153;22533;-75
2021/04/22 03:03:25;;;;;;;8.50;4.43;;;;;;;8.16;62.14;100156.40;122532;1151;22518;-75
2021/04/22 03:05:57;;;;;;;8.33;4.10;;;;;;;8.12;61.53;100162.11;122427;1151;22529;-75
2021/04/22 03:08:26;;;;;;;;;;;;;;;8.02;61.36;100160.41;122488;1153;22514;-74
2021/04/22 03:10:54;;;;;;;8.75;3.83;;;;;;;7.94;61.05;100167.45;122470;1152;21333;-74
2021/04/22 03:13:22;;;;;;;8.43;3.98;;;;;;;7.89;60.90;100172.33;122267;1153;22523;-73
2021/04/22 03:15:51;;;;;;;11.38;3.78;;;;;;;7.83;60.24;100180.84;122279;1152;22518;-74
2021/04/22 03:18:19;;;;;;;8.48;3.60;;;;;;;7.74;59.79;100177.34;122416;1152;25167;-73
2021/04/22 03:20:47;;;;;;;9.85;3.18;;;;;;;7.66;59.69;100178.09;122430;1152;22524;-73
2021/04/22 03:23:16;;;;;;;8.15;3.28;;;;;;;7.55;58.80;100184.42;122372;1152;22537;-75
2021/04/22 03:25:44;;;;;;;8.10;3.23;;;;;;;7.48;58.14;100183.38;122440;1152;22540;-74
2021/04/22 03:28:15;;;;;;;9.45;2.53;;;;;;;7.45;57.67;100182.86;122417;1153;23428;-74
2021/04/22 03:30:44;;;;;;;5.70;2.60;;;;;;;7.41;57.19;100184.97;122213;1152;24670;-74
2021/04/22 03:33:12;;;;;;;10.38;3.25;;;;;;;7.38;56.98;100185.27;122502;1153;22534;-74
2021/04/22 03:35:41;;;;;;;11.30;2.98;;;;;;;7.31;56.32;100185.05;122427;1152;22525;-76
2021/04/22 03:38:12;;;;;;;12.30;4.33;;;;;;;7.27;56.11;100177.63;122455;1152;24363;-74
2021/04/22 03:40:41;;;;;;;6.45;3.05;;;;;;;7.22;55.60;100190.37;122551;1152;22523;-74
2021/04/22 03:43:09;;;;;;;14.07;3.20;;;;;;;7.20;55.65;100185.28;122428;1152;25401;-74
2021/04/22 03:45:37;;;;;;;12.10;2.70;;;;;;;7.17;55.10;100200.52;122346;1152;22701;-74
2021/04/22 03:48:06;;;;;;;9.90;2.30;;;;;;;7.12;55.26;100200.13;122420;1152;22531;-74
2021/04/22 03:50:38;;;;;;;10.45;3.05;;;;;;;7.06;54.90;100206.79;122389;1152;22503;-74
2021/04/22 03:53:06;;;;;;;10.15;3.20;;;;;;;6.99;54.97;100209.19;122444;1152;22525;-74
2021/04/22 03:55:35;;;;;;;8.53;4.28;;;;;;;6.96;54.55;100219.16;122354;1152;22531;-73
2021/04/22 03:58:03;;;;;;;13.88;5.33;;;;;;;6.93;54.31;100217.68;122381;1152;22528;-73
2021/04/22 04:00:31;;;;;;;10.30;4.95;;;;;;;6.92;54.63;100218.63;122385;1152;24502;-73
2021/04/22 04:02:59;;;;;;;9.45;3.63;;;;;;;6.90;54.43;100222.37;122368;1152;25146;-73
2021/04/22 04:05:28;;;;;;;18.20;5.55;;;;;;;6.89;54.25;100237.30;122172;1152;24684;-73
2021/04/22 04:07:56;;;;;;;10.23;3.55;;;;;;;6.89;54.43;100232.05;122438;1153;23165;-73
2021/04/22 04:10:24;;;;;;;13.35;4.25;;;;;;;6.88;54.05;100232.21;122191;1153;22522;-73
2021/04/22 04:12:53;;;;;;;17.58;3.78;;;;;;;6.88;54.00;100240.09;122196;1153;22519;-74
2021/04/22 04:15:21;;;;;;;10.77;3.47;;;;;;;6.84;53.77;100239.56;122450;1152;22528;-73
2021/04/22 04:17:50;;;;;;;12.00;3.43;;;;;;;6.81;53.98;100240.67;122194;1152;22536;-73
2021/04/22 04:20:18;;;;;;;17.58;3.60;;;;;;;6.82;53.85;100252.00;122410;1153;22617;-73
2021/04/22 04:22:47;;;;;;;14.18;3.60;;;;;;;6.78;53.40;100250.64;122398;1152;22983;-72
2021/04/22 04:25:15;;;;;;;10.88;3.55;;;;;;;6.76;53.97;100253.39;122368;1152;22955;-73
2021/04/22 04:27:44;;;;;;;10.68;3.70;;;;;;;6.77;53.83;100259.50;122353;1152;22570;-73
2021/04/22 04:30:16;;;;;;;14.05;4.18;;;;;;;6.75;53.58;100254.38;122210;1153;22560;-73
2021/04/22 04:32:45;;;;;;;11.60;4.40;;;;;;;6.76;53.53;100260.45;122432;1152;22531;-72
2021/04/22 04:35:14;;;;;;;12.78;4.33;;;;;;;6.76;53.50;100255.20;122234;1152;22554;-72
2021/04/22 04:37:43;;;;;;;15.43;5.98;;;;;;;6.75;53.27;100271.93;122142;1152;24767;-72
2021/04/22 04:40:14;;;;;;;14.88;4.68;;;;;;;6.71;53.52;100271.39;122343;1152;22607;-72
2021/04/22 04:42:44;;;;;;;31.73;13.80;;;;;;;6.74;53.53;100273.73;122195;1153;22532;-72
2021/04/22 04:45:17;;;;;;;22.75;11.03;;;;;;;6.74;53.38;100273.73;122394;1152;22537;-72
2021/04/22 04:47:48;;;;;;;21.93;7.78;;;;;;;6.78;53.28;100277.72;122397;1151;22542;-72
2021/04/22 04:50:18;;;;;;;19.93;6.18;;;;;;;6.83;53.35;100283.38;122205;1152;22529;-72
2021/04/22 04:52:51;;;;;;;19.80;5.33;;;;;;;6.90;53.28;100286.25;121975;1156;22690;-72
2021/04/22 04:55:20;;;;;;;14.33;4.50;;;;;;;7.05;53.22;100289.20;122012;1155;22686;-72
2021/04/22 04:57:48;;;;;;;18.90;4.50;;;;;;;7.23;54.06;100291.85;122050;1155;23001;-72
2021/04/22 05:00:17;;;;;;;15.68;4.45;;;;;;;7.39;53.31;100293.84;121955;1155;22715;-72
2021/04/22 05:02:47;;;;;;;22.28;4.90;;;;;;;7.48;52.68;100293.77;121948;1156;22535;-72
2021/04/22 05:05:16;;;;;;;17.68;4.18;;;;;;;7.53;52.38;100299.42;121964;1156;24435;-72
2021/04/22 05:07:45;;;;;;;19.08;5.13;;;;;;;7.61;52.16;100300.47;122120;1155;22647;-72
2021/04/22 05:10:14;;;;;;;13.33;5.33;;;;;;;7.67;51.90;100291.99;121952;1155;24516;-73
2021/04/22 05:12:43;;;;;;;19.10;7.83;;;;;;;7.71;51.61;100303.86;121963;1155;22545;-72
2021/04/22 05:15:12;;;;;;;16.43;4.93;;;;;;;7.74;51.74;100299.13;121985;1156;22545;-72
2021/04/22 05:17:41;;;;;;;13.33;4.30;;;;;;;7.78;51.45;100310.98;122297;1152;22559;-72
2021/04/22 05:20:10;;;;;;;12.00;5.15;;;;;;;7.78;51.28;100305.72;122127;1152;22534;-72
2021/04/22 05:22:39;;;;;;;14.83;4.05;;;;;;;7.76;51.21;100306.84;122170;1152;22529;-73
2021/04/22 05:25:08;;;;;;;13.18;4.65;;;;;;;7.67;51.05;100305.14;122118;1152;22578;-72
2021/04/22 05:27:37;;;;;;;13.83;3.78;;;;;;;7.63;51.35;100312.50;122101;1152;24446;-72
2021/04/22 05:30:06;;;;;;;12.23;4.43;;;;;;;7.65;51.67;100320.23;122109;1152;24416;-73
2021/04/22 05:32:34;;;;;;;14.80;4.73;;;;;;;7.60;51.16;100320.69;122118;1152;24439;-73
2021/04/22 05:35:03;;;;;;;18.63;5.18;;;;;;;7.49;51.56;100324.33;122168;1152;22532;-73
2021/04/22 05:37:49;;;;;;;16.95;4.90;;;;;;;7.38;51.10;100324.55;122218;1151;24373;-72
2021/04/22 05:40:20;;;;;;;18.33;5.00;;;;;;;7.37;51.70;100332.59;122145;1152;22528;-72
2021/04/22 05:42:49;;;;;;;12.60;4.23;;;;;;;7.33;51.72;100329.44;122166;1152;22557;-72
2021/04/22 05:45:18;;;;;;;19.10;4.30;;;;;;;7.34;51.63;100335.52;122224;1152;22547;-72
2021/04/22 05:47:47;;;;;;;16.40;5.15;;;;;;;7.32;51.38;100335.64;122173;1152;23507;-72
2021/04/22 05:50:18;;;;;;;12.05;4.95;;;;;;;7.31;52.09;100334.83;122256;1152;23035;-72
2021/04/22 05:52:47;;;;;;;13.23;6.27;;;;;;;7.29;52.12;100338.56;122414;1151;22909;-72
2021/04/22 05:55:17;;;;;;;16.60;5.90;;;;;;;7.33;52.22;100345.20;122261;1152;22633;-73
2021/04/22 05:57:47;;;;;;;13.33;5.33;;;;;;;7.35;52.25;100343.23;121650;1156;22601;-71
2021/04/22 06:00:19;;;;;;;16.23;4.50;;;;;;;7.39;52.12;100349.03;121674;1156;22552;-72
2021/04/22 06:02:48;;;;;;;18.03;5.00;;;;;;;7.44;51.96;100352.05;121674;1155;25183;-74
2021/04/22 06:05:19;;;;;;;12.03;4.25;;;;;;;7.49;52.26;100350.61;122048;1155;22541;-74
2021/04/22 06:07:48;;;;;;;21.20;5.50;;;;;;;7.59;52.28;100355.81;121605;1156;22535;-75
2021/04/22 06:10:17;;;;;;;13.80;4.35;;;;;;;7.72;51.92;100347.57;121453;1158;22650;-75
2021/04/22 06:12:47;;;;;;;16.18;4.75;;;;;;;7.91;51.84;100357.13;121241;1158;22576;-75
2021/04/22 06:15:20;;;;;;;17.83;5.13;;;;;;;8.24;53.11;100352.98;121592;1155;22554;-77
2021/04/22 06:17:51;;;;;;;15.15;4.68;;;;;;;8.65;51.71;100355.92;121683;1156;22778;-81
2021/04/22 06:20:24;;;;;;;15.40;4.53;;;;;;;8.77;50.29;100359.13;121600;1155;22560;-75
2021/04/22 06:22:52;;;;;;;20.28;6.45;;;;;;;8.73;49.86;100361.26;121717;1156;22641;-75
2021/04/22 06:25:22;;;;;;;16.53;5.18;;;;;;;8.61;49.60;100360.67;122043;1155;22534;-75
2021/04/22 06:27:57;;;;;;;13.30;5.68;;;;;;;8.51;49.34;100364.39;121849;1152;24687;-76
2021/04/22 06:30:27;;;;;;;12.73;4.93;;;;;;;8.57;49.71;100366.41;122214;1154;22540;-75
2021/04/22 06:32:56;;;;;;;12.75;4.55;;;;;;;8.60;49.15;100374.83;122257;1152;22535;-75
2021/04/22 06:35:27;;;;;;;13.63;5.67;;;;;;;8.51;48.57;100372.30;122105;1152;22621;-76
2021/04/22 06:37:55;;;;;;;13.00;4.83;;;;;;;8.68;49.38;100374.05;122163;1153;22820;-75
2021/04/22 06:40:24;;;;;;;16.05;6.78;;;;;;;9.08;49.03;100365.55;122233;1152;24677;-75
2021/04/22 06:42:54;;;;;;;12.35;5.18;;;;;;;9.50;48.44;100377.09;122125;1153;22537;-76
2021/04/22 06:45:23;;;;;;;18.33;8.78;;;;;;;9.90;46.96;100373.72;122250;1152;22575;-75
2021/04/22 06:47:51;;;;;;;15.50;6.08;;;;;;;10.26;46.53;100376.92;121659;1155;22725;-76
2021/04/22 06:50:23;;;;;;;12.08;5.38;;;;;;;10.50;45.77;100373.44;121967;1156;25873;-75
2021/04/22 06:52:52;;;;;;;16.05;5.85;;;;;;;10.47;44.60;100381.69;121711;1156;23564;-75
2021/04/22 06:55:23;;;;;;;11.10;5.15;;;;;;;10.71;45.01;100375.55;121599;1156;22547;-75
2021/04/22 06:58:04;;;;;;;17.78;8.78;;;;;;;10.68;43.51;100383.80;121688;1155;22553;-76
2021/04/22 07:00:38;;;;;;;;;;;;;;;10.51;43.25;100382.17;121651;1156;22546;-76
2021/04/22 07:03:07;;;;;;;16.30;7.18;;;;;;;10.58;44.29;100386.63;121732;1155;21347;-73
2021/04/22 07:05:37;;;;;;;16.58;5.18;;;;;;;10.94;44.58;100383.59;121708;1151;24367;-73
2021/04/22 07:08:07;;;;;;;13.33;5.00;;;;;;;11.11;42.97;100391.48;122121;1152;23973;-73
2021/04/22 07:10:37;;;;;;;20.98;9.18;;;;;;;11.10;42.22;100389.84;122100;1152;22624;-73
2021/04/22 07:13:07;;;;;;;15.68;5.93;;;;;;;11.26;42.23;100395.05;122459;1154;22538;-71
2021/04/22 07:15:35;;;;;;;16.00;5.08;;;;;;;11.53;41.79;100388.50;122134;1152;22844;-72
2021/04/22 07:18:08;;;;;;;17.75;4.53;;;;;;;11.56;40.73;100401.36;122588;1151;22579;-71
2021/04/22 07:20:38;;;;;;;15.20;5.30;;;;;;;11.39;40.29;100407.73;122311;1153;22544;-72
2021/04/22 07:23:06;;;;;;;14.50;5.03;;;;;;;11.18;40.27;100408.30;122036;1155;22551;-72
2021/04/22 07:25:35;;;;;;;12.03;4.38;;;;;;;11.20;40.29;100406.33;122017;1155;22584;-72
2021/04/22 07:28:06;;;;;;;11.90;4.65;;;;;;;11.36;40.15;100403.59;121964;1155;26015;-72
2021/04/22 07:30:39;;;;;;;12.70;3.87;;;;;;;11.43;39.46;100416.95;122088;1155;24364;-72
2021/04/22 07:33:08;;;;;;;10.73;4.30;;;;;;;11.63;38.94;100412.92;121588;1156;25180;-71
2021/04/22 07:35:39;;;;;;;9.70;4.03;;;;;;;11.90;38.72;100406.35;121496;1156;22548;-72
2021/04/22 07:38:17;;;;;;;13.88;4.60;;;;;;;12.21;37.58;100411.59;121755;1158;22557;-73
2021/04/22 07:40:45;;;;;;;12.03;4.13;;;;;;;12.48;37.08;100409.40;121687;1155;24677;-73
2021/04/22 07:43:15;;;;;;;9.38;4.00;;;;;;;12.75;36.95;100413.30;121666;1155;22574;-73
2021/04/22 07:45:45;;;;;;;12.88;4.23;;;;;;;12.77;36.04;100411.30;122030;1156;24578;-74
2021/04/22 07:48:15;;;;;;;11.65;4.60;;;;;;;12.97;36.51;100402.82;122093;1155;22635;-74
2021/04/22 07:50:44;;;;;;;11.03;4.30;;;;;;;13.21;35.85;100405.19;122075;1151;24386;-73
2021/04/22 07:53:12;;;;;;;11.60;4.90;;;;;;;13.50;36.08;100422.14;122100;1152;23320;-73
2021/04/22 07:55:44;;;;;;;11.80;4.48;;;;;;;13.48;35.22;100413.53;122176;1151;22636;-73
2021/04/22 07:58:16;;;;;;;14.03;4.78;;;;;;;13.45;35.46;100409.41;122109;1155;22537;-74
2021/04/22 08:00:49;;;;;;;12.78;4.75;;;;;;;13.43;34.98;100424.71;122125;1152;23329;-73
2021/04/22 08:03:18;;;;;;;11.70;4.45;;;;;;;13.41;34.30;100418.75;122197;1151;22540;-73
2021/04/22 08:05:54;;;;;;;7.75;4.00;;;;;;;13.12;34.50;100425.66;122386;1154;24735;-73
2021/04/22 08:08:25;;;;;;;11.95;4.43;;;;;;;12.75;34.80;100434.50;122172;1151;22540;-74
2021/04/22 08:10:55;;;;;;;10.73;3.77;;;;;;;12.63;35.78;100423.52;122362;1152;22830;-74
2021/04/22 08:13:24;;;;;;;11.90;4.73;;;;;;;12.77;35.73;100432.50;122202;1155;22537;-72
2021/04/22 08:15:54;;;;;;;13.98;4.45;;;;;;;12.59;35.15;100442.59;122361;1152;24670;-72
2021/04/22 08:18:27;;;;;;;13.08;4.93;;;;;;;12.33;35.25;100443.80;122442;1151;23364;-72
2021/04/22 08:20:57;;;;;;;9.43;3.88;;;;;;;12.05;35.66;100438.19;122477;1152;24700;-74
2021/04/22 08:23:32;;;;;;;11.43;4.35;;;;;;;12.27;36.40;100435.73;122206;1152;22525;-73
2021/04/22 08:26:08;;;;;;;13.10;4.80;;;;;;;12.48;35.70;100449.14;122208;1151;22537;-73
2021/04/22 08:28:37;;;;;;;14.75;4.93;;;;;;;12.57;35.58;100439.31;122475;1152;22524;-73
2021/04/22 08:31:24;;;;;;;16.03;4.33;;;;;;;12.41;35.27;100443.73;122453;1152;22527;-73
2021/04/22 08:34:00;;;;;;;13.95;4.93;;;;;;;12.24;35.51;100431.61;122155;1152;22620;-73
2021/04/22 08:36:29;;;;;;;14.03;4.78;;;;;;;12.43;35.79;100447.03;122408;1152;22527;-73
2021/04/22 08:38:58;;;;;;;12.23;4.78;;;;;;;12.76;35.78;100446.73;122264;1152;22541;-73
2021/04/22 08:41:27;;;;;;;15.35;6.23;;;;;;;13.14;34.90;100433.45;122302;1152;22537;-74
2021/04/22 08:43:55;;;;;;;11.20;4.40;;;;;;;13.26;34.49;100434.69;122062;1153;22535;-74
2021/04/22 08:46:23;;;;;;;17.73;5.05;;;;;;;13.21;34.44;100437.02;122071;1152;24057;-74
2021/04/22 08:48:54;;;;;;;11.83;3.55;;;;;;;13.10;34.13;100445.45;122422;1152;24687;-73
2021/04/22 08:51:24;;;;;;;11.13;4.85;;;;;;;13.30;35.05;100448.41;122442;1152;22520;-73
2021/04/22 08:53:52;;;;;;;16.53;6.05;;;;;;;13.52;34.83;100450.12;122200;1153;23202;-73
2021/04/22 08:56:22;;;;;;;14.35;5.45;;;;;;;13.69;34.32;100441.95;122317;1151;22596;-72
2021/04/22 08:58:51;;;;;;;13.40;4.88;;;;;;;13.57;34.02;100454.89;122152;1152;22518;-73
2021/04/22 09:01:21;;;;;;;7.90;3.85;;;;;;;13.59;34.11;100447.55;122002;1155;25190;-73
2021/04/22 09:03:50;;;;;;;14.15;4.95;;;;;;;13.68;33.50;100440.31;122006;1155;22538;-73
2021/04/22 09:06:21;;;;;;;16.25;5.45;;;;;;;13.59;34.11;100447.55;122011;1155;24710;-73
2021/04/22 09:08:52;;;;;;;10.25;5.20;;;;;;;13.39;33.67;100455.25;121982;1155;22688;-73
2021/04/22 09:11:26;;;;;;;13.03;4.63;;;;;;;13.24;34.58;100449.11;122007;1153;22711;-73
2021/04/22 09:13:56;;;;;;;12.00;4.35;;;;;;;13.52;34.68;100444.81;122098;1155;24396;-73
2021/04/22 09:16:28;;;;;;;15.10;5.73;;;;;;;13.86;34.78;100454.00;121973;1153;22632;-73
2021/04/22 09:19:10;;;;;;;13.83;5.28;;;;;;;13.97;33.93;100442.91;122134;1152;22525;-72
2021/04/22 09:21:46;;;;;;;18.23;4.95;;;;;;;14.41;34.29;100449.07;122235;1153;22534;-73
2021/04/22 09:24:19;;;;;;;13.90;5.20;;;;;;;14.53;33.47;100460.88;122168;1152;24674;-73
2021/04/22 09:27:03;;;;;;;15.18;5.25;;;;;;;14.68;33.18;100453.63;122242;1152;22534;-73
2021/04/22 09:29:46;;;;;;;11.38;5.80;;;;;;;14.54;32.51;100465.98;122142;1154;22546;-73
2021/04/22 09:32:17;;;;;;;;;;;;;;;14.21;32.64;100467.47;122419;1155;22639;-74
2021/04/22 09:34:49;;;;;;;15.18;6.10;;;;;;;14.30;33.85;100458.38;122356;1155;21336;-74
2021/04/22 09:37:21;;;;;;;11.93;3.93;;;;;;;14.64;33.82;100470.98;122202;1152;24435;-73
2021/04/22 09:39:51;;;;;;;12.45;4.53;;;;;;;14.76;32.98;100463.30;122182;1153;22524;-73
2021/04/22 09:42:21;;;;;;;13.70;4.65;;;;;;;14.69;33.25;100463.23;122204;1152;22531;-73
2021/04/22 09:44:50;;;;;;;11.20;4.33;;;;;;;14.86;33.18;100468.28;122138;1152;22541;-74
2021/04/22 09:47:23;;;;;;;12.65;5.18;;;;;;;14.91;32.72;100472.02;121700;1155;25176;-73
2021/04/22 09:50:01;;;;;;;10.13;5.15;;;;;;;14.89;32.18;100471.38;121662;1155;22558;-74
2021/04/22 09:52:41;;;;;;;13.23;5.07;;;;;;;14.71;32.49;100469.20;121435;1157;22561;-72
2021/04/22 09:55:16;;;;;;;15.83;4.98;;;;;;;14.55;32.47;100458.83;121512;1158;22627;-73
2021/04/22 09:57:46;;;;;;;13.85;5.35;;;;;;;14.38;32.60;100468.87;121462;1158;22620;-74
2021/04/22 10:00:32;;;;;;;13.65;4.88;;;;;;;14.18;32.66;100460.70;121430;1159;22563;-73
2021/04/22 10:03:10;;;;;;;7.50;4.38;;;;;;;13.97;32.92;100465.99;121398;1158;22567;-74
2021/04/22 10:05:40;;;;;;;9.38;4.83;;;;;;;14.03;33.22;100462.59;121454;1158;22574;-72
2021/04/22 10:08:14;;;;;;;14.68;4.83;;;;;;;13.87;32.95;100466.29;121509;1158;24711;-73
2021/04/22 10:10:55;;;;;;;7.40;3.73;;;;;;;13.85;33.29;100465.64;121596;1156;22537;-73
2021/04/22 10:13:23;;;;;;;13.83;4.07;;;;;;;14.11;33.67;100463.28;122392;1152;22542;-73
2021/04/22 10:15:55;;;;;;;11.23;4.73;;;;;;;13.98;32.72;100472.94;122401;1151;22592;-73
2021/04/22 10:18:37;;;;;;;11.45;5.03;;;;;;;13.44;32.72;100466.16;122258;1152;24674;-73
2021/04/22 10:21:05;;;;;;;11.47;5.43;;;;;;;12.94;33.60;100455.20;122197;1154;22540;-72
2021/04/22 10:23:35;;;;;;;10.53;4.35;;;;;;;12.76;34.03;100457.34;122233;1152;24423;-74
2021/04/22 10:26:04;;;;;;;10.48;5.20;;;;;;;12.78;34.23;100450.05;122241;1152;22540;-73
2021/04/22 10:28:32;;;;;;;12.58;5.60;;;;;;;12.85;34.70;100455.45;122131;1152;25159;-72
2021/04/22 10:31:00;;;;;;;10.03;4.85;;;;;;;13.08;34.51;100456.22;122094;1154;22538;-72
2021/04/22 10:33:28;;;;;;;10.88;4.63;;;;;;;13.27;33.99;100456.73;122244;1152;23228;-72
2021/04/22 10:35:57;;;;;;;12.43;5.40;;;;;;;13.30;33.70;100453.72;122008;1154;22565;-73
2021/04/22 10:38:26;;;;;;;13.08;6.40;;;;;;;13.22;33.78;100443.97;122358;1151;24425;-73
2021/04/22 10:40:58;;;;;;;11.90;5.18;;;;;;;13.16;33.64;100444.69;122188;1152;23405;-73
2021/04/22 10:43:29;;;;;;;12.08;5.33;;;;;;;13.12;33.50;100440.77;122183;1152;22540;-73
2021/04/22 10:45:57;;;;;;;17.40;9.10;;;;;;;13.20;34.33;100443.34;122375;1153;22579;-73
2021/04/22 10:48:26;;;;;;;8.13;4.55;;;;;;;13.19;34.01;100431.06;122138;1152;22623;-74
2021/04/22 10:50:55;;;;;;;13.38;6.28;;;;;;;13.03;34.01;100440.05;122150;1151;22979;-73
2021/04/22 10:53:25;;;;;;;11.00;5.03;;;;;;;13.03;34.38;100447.15;122187;1152;24509;-74
2021/04/22 10:55:56;;;;;;;11.08;5.03;;;;;;;13.00;34.19;100442.23;121722;1155;22535;-73
2021/04/22 10:58:36;;;;;;;8.85;4.35;;;;;;;12.88;34.12;100444.48;122067;1155;22538;-74
2021/04/22 11:01:13;;;;;;;8.65;4.40;;;;;;;12.55;33.88;100442.13;121509;1158;22574;-73
2021/04/22 11:03:48;;;;;;;19.13;5.63;;;;;;;12.34;34.84;100442.80;121505;1158;24080;-73
2021/04/22 11:06:21;;;;;;;10.68;5.08;;;;;;;12.38;35.27;100437.96;121472;1156;22577;-76
2021/04/22 11:08:55;;;;;;;8.90;4.78;;;;;;;12.43;35.78;100443.56;121448;1158;22568;-77
2021/04/22 11:11:34;;;;;;;14.65;5.13;;;;;;;12.41;35.26;100453.51;121505;1158;22580;-76
2021/04/22 11:14:14;;;;;;;14.73;5.25;;;;;;;12.45;35.51;100455.61;121568;1157;23504;-76
2021/04/22 11:16:52;;;;;;;12.00;4.65;;;;;;;12.36;35.21;100447.90;121533;1157;22577;-77
2021/04/22 11:19:43;;;;;;;10.38;5.08;;;;;;;12.24;35.29;100453.63;121772;1155;23465;-76
2021/04/22 11:22:28;;;;;;;11.95;3.93;;;;;;;12.20;35.79;100457.63;122223;1151;24750;-76
2021/04/22 11:25:00;;;;;;;11.18;4.13;;;;;;;12.12;35.79;100444.42;122148;1154;22543;-73
2021/04/22 11:27:47;;;;;;;11.40;4.43;;;;;;;12.07;35.95;100451.27;122178;1152;22545;-72